sensor_id;sensor_type;location;lat;lon;timestamp;P1;durP1;ratioP1;P2;durP2;ratioP2
49758;SDS011;70329;45.524;10.194;2024-02-21T00:00:04;74.75;;;29.65;;
49758;SDS011;70329;45.524;10.194;2024-02-21T00:02:33;76.70;;;28.65;;
49758;SDS011;70329;45.524;10.194;2024-02-21T00:05:01;78.07;;;30.55;;
49758;SDS011;70329;45.524;10.194;2024-02-21T00:07:28;73.60;;;28.42;;
49758;SDS011;70329;45.524;10.194;2024-02-21T00:12:22;69.00;;;28.33;;
49758;SDS011;70329;45.524;10.194;2024-02-21T00:14:52;79.95;;;30.63;;
49758;SDS011;70329;45.524;10.194;2024-02-21T00:17:19;79.65;;;30.88;;
49758;SDS011;70329;45.524;10.194;2024-02-21T00:19:46;83.25;;;31.10;;
49758;SDS011;70329;45.524;10.194;2024-02-21T00:24:39;78.32;;;29.98;;
49758;SDS011;70329;45.524;10.194;2024-02-21T00:27:06;80.57;;;31.20;;
49758;SDS011;70329;45.524;10.194;2024-02-21T00:29:33;88.15;;;30.75;;
49758;SDS011;70329;45.524;10.194;2024-02-21T00:32:03;86.35;;;31.05;;
49758;SDS011;70329;45.524;10.194;2024-02-21T00:34:30;71.05;;;28.08;;
49758;SDS011;70329;45.524;10.194;2024-02-21T00:39:24;66.40;;;27.08;;
49758;SDS011;70329;45.524;10.194;2024-02-21T00:41:52;66.63;;;27.55;;
49758;SDS011;70329;45.524;10.194;2024-02-21T00:44:20;66.20;;;24.65;;
49758;SDS011;70329;45.524;10.194;2024-02-21T00:46:48;60.85;;;24.42;;
49758;SDS011;70329;45.524;10.194;2024-02-21T00:49:18;64.22;;;23.65;;
49758;SDS011;70329;45.524;10.194;2024-02-21T00:51:45;63.25;;;24.42;;
49758;SDS011;70329;45.524;10.194;2024-02-21T00:56:38;65.57;;;24.55;;
49758;SDS011;70329;45.524;10.194;2024-02-21T00:59:05;60.25;;;22.60;;
49758;SDS011;70329;45.524;10.194;2024-02-21T01:01:32;54.72;;;23.13;;
49758;SDS011;70329;45.524;10.194;2024-02-21T01:06:27;59.50;;;22.90;;
49758;SDS011;70329;45.524;10.194;2024-02-21T01:08:54;63.90;;;25.60;;
49758;SDS011;70329;45.524;10.194;2024-02-21T01:11:21;69.85;;;25.85;;
49758;SDS011;70329;45.524;10.194;2024-02-21T01:16:14;62.03;;;25.00;;
49758;SDS011;70329;45.524;10.194;2024-02-21T01:23:38;63.17;;;23.20;;
49758;SDS011;70329;45.524;10.194;2024-02-21T01:26:04;61.13;;;24.42;;
49758;SDS011;70329;45.524;10.194;2024-02-21T01:28:34;64.40;;;24.88;;
49758;SDS011;70329;45.524;10.194;2024-02-21T01:31:03;59.53;;;23.35;;
49758;SDS011;70329;45.524;10.194;2024-02-21T01:33:32;66.22;;;25.30;;
49758;SDS011;70329;45.524;10.194;2024-02-21T01:36:01;62.83;;;22.63;;
49758;SDS011;70329;45.524;10.194;2024-02-21T01:38:29;62.55;;;24.38;;
49758;SDS011;70329;45.524;10.194;2024-02-21T01:40:59;66.13;;;24.98;;
49758;SDS011;70329;45.524;10.194;2024-02-21T01:43:26;63.20;;;24.00;;
49758;SDS011;70329;45.524;10.194;2024-02-21T01:48:23;58.67;;;22.33;;
49758;SDS011;70329;45.524;10.194;2024-02-21T01:50:51;58.88;;;22.60;;
49758;SDS011;70329;45.524;10.194;2024-02-21T01:53:20;54.05;;;21.58;;
49758;SDS011;70329;45.524;10.194;2024-02-21T01:55:48;55.08;;;20.23;;
49758;SDS011;70329;45.524;10.194;2024-02-21T01:58:17;53.72;;;19.85;;
49758;SDS011;70329;45.524;10.194;2024-02-21T02:00:47;47.22;;;19.98;;
49758;SDS011;70329;45.524;10.194;2024-02-21T02:03:15;51.50;;;19.35;;
49758;SDS011;70329;45.524;10.194;2024-02-21T02:05:44;51.85;;;20.15;;
49758;SDS011;70329;45.524;10.194;2024-02-21T02:08:12;55.55;;;20.42;;
49758;SDS011;70329;45.524;10.194;2024-02-21T02:10:39;43.40;;;18.60;;
49758;SDS011;70329;45.524;10.194;2024-02-21T02:13:07;47.65;;;20.05;;
49758;SDS011;70329;45.524;10.194;2024-02-21T02:15:41;49.03;;;19.52;;
49758;SDS011;70329;45.524;10.194;2024-02-21T02:18:08;46.33;;;18.88;;
49758;SDS011;70329;45.524;10.194;2024-02-21T02:23:05;42.10;;;17.02;;
49758;SDS011;70329;45.524;10.194;2024-02-21T02:25:37;44.72;;;17.50;;
49758;SDS011;70329;45.524;10.194;2024-02-21T02:28:05;47.53;;;18.02;;
49758;SDS011;70329;45.524;10.194;2024-02-21T02:30:33;41.03;;;17.10;;
49758;SDS011;70329;45.524;10.194;2024-02-21T02:33:01;48.47;;;19.33;;
49758;SDS011;70329;45.524;10.194;2024-02-21T02:35:28;48.45;;;18.88;;
49758;SDS011;70329;45.524;10.194;2024-02-21T02:40:24;55.35;;;19.48;;
49758;SDS011;70329;45.524;10.194;2024-02-21T02:42:53;50.92;;;19.58;;
49758;SDS011;70329;45.524;10.194;2024-02-21T02:45:21;47.55;;;19.52;;
49758;SDS011;70329;45.524;10.194;2024-02-21T02:47:49;52.72;;;19.45;;
49758;SDS011;70329;45.524;10.194;2024-02-21T02:50:16;48.15;;;19.27;;
49758;SDS011;70329;45.524;10.194;2024-02-21T02:55:11;46.30;;;18.55;;
49758;SDS011;70329;45.524;10.194;2024-02-21T02:57:38;46.78;;;20.42;;
49758;SDS011;70329;45.524;10.194;2024-02-21T03:00:10;50.90;;;19.70;;
49758;SDS011;70329;45.524;10.194;2024-02-21T03:02:39;49.08;;;18.95;;
49758;SDS011;70329;45.524;10.194;2024-02-21T03:05:11;44.33;;;18.13;;
49758;SDS011;70329;45.524;10.194;2024-02-21T03:07:39;48.45;;;18.65;;
49758;SDS011;70329;45.524;10.194;2024-02-21T03:10:08;47.63;;;17.67;;
49758;SDS011;70329;45.524;10.194;2024-02-21T03:12:36;41.58;;;17.33;;
49758;SDS011;70329;45.524;10.194;2024-02-21T03:15:04;45.67;;;18.38;;
49758;SDS011;70329;45.524;10.194;2024-02-21T03:17:33;50.70;;;19.48;;
49758;SDS011;70329;45.524;10.194;2024-02-21T03:20:00;45.88;;;17.38;;
49758;SDS011;70329;45.524;10.194;2024-02-21T03:22:30;44.33;;;17.83;;
49758;SDS011;70329;45.524;10.194;2024-02-21T03:24:57;44.83;;;18.17;;
49758;SDS011;70329;45.524;10.194;2024-02-21T03:27:25;40.25;;;15.93;;
49758;SDS011;70329;45.524;10.194;2024-02-21T03:29:52;45.58;;;17.25;;
49758;SDS011;70329;45.524;10.194;2024-02-21T03:32:19;46.78;;;17.42;;
49758;SDS011;70329;45.524;10.194;2024-02-21T03:37:13;45.30;;;16.75;;
49758;SDS011;70329;45.524;10.194;2024-02-21T03:39:40;38.60;;;16.17;;
49758;SDS011;70329;45.524;10.194;2024-02-21T03:42:08;39.88;;;16.20;;
49758;SDS011;70329;45.524;10.194;2024-02-21T03:44:36;42.10;;;16.55;;
49758;SDS011;70329;45.524;10.194;2024-02-21T03:47:04;38.65;;;16.17;;
49758;SDS011;70329;45.524;10.194;2024-02-21T03:49:32;41.35;;;15.77;;
49758;SDS011;70329;45.524;10.194;2024-02-21T03:52:00;43.47;;;16.75;;
49758;SDS011;70329;45.524;10.194;2024-02-21T03:54:29;42.25;;;15.55;;
49758;SDS011;70329;45.524;10.194;2024-02-21T03:59:25;41.60;;;16.10;;
49758;SDS011;70329;45.524;10.194;2024-02-21T04:01:51;39.42;;;16.13;;
49758;SDS011;70329;45.524;10.194;2024-02-21T04:04:20;40.92;;;15.98;;
49758;SDS011;70329;45.524;10.194;2024-02-21T04:06:47;38.40;;;15.80;;
49758;SDS011;70329;45.524;10.194;2024-02-21T04:09:15;41.47;;;15.73;;
49758;SDS011;70329;45.524;10.194;2024-02-21T04:11:43;40.95;;;16.50;;
49758;SDS011;70329;45.524;10.194;2024-02-21T04:14:10;41.03;;;16.83;;
49758;SDS011;70329;45.524;10.194;2024-02-21T04:16:37;37.42;;;15.25;;
49758;SDS011;70329;45.524;10.194;2024-02-21T04:19:04;42.50;;;15.52;;
49758;SDS011;70329;45.524;10.194;2024-02-21T04:23:57;35.90;;;14.52;;
49758;SDS011;70329;45.524;10.194;2024-02-21T04:28:54;38.15;;;14.52;;
49758;SDS011;70329;45.524;10.194;2024-02-21T04:31:22;40.08;;;15.00;;
49758;SDS011;70329;45.524;10.194;2024-02-21T04:33:49;39.10;;;15.20;;
49758;SDS011;70329;45.524;10.194;2024-02-21T04:36:18;42.30;;;15.43;;
49758;SDS011;70329;45.524;10.194;2024-02-21T04:38:45;36.83;;;14.85;;
49758;SDS011;70329;45.524;10.194;2024-02-21T04:41:12;35.78;;;14.25;;
49758;SDS011;70329;45.524;10.194;2024-02-21T04:48:34;39.88;;;13.90;;
49758;SDS011;70329;45.524;10.194;2024-02-21T04:51:03;34.08;;;13.88;;
49758;SDS011;70329;45.524;10.194;2024-02-21T04:53:31;35.60;;;14.18;;
49758;SDS011;70329;45.524;10.194;2024-02-21T04:55:58;36.50;;;13.95;;
49758;SDS011;70329;45.524;10.194;2024-02-21T04:58:25;33.95;;;14.02;;
49758;SDS011;70329;45.524;10.194;2024-02-21T05:00:54;34.75;;;14.57;;
49758;SDS011;70329;45.524;10.194;2024-02-21T05:03:24;35.13;;;14.05;;
49758;SDS011;70329;45.524;10.194;2024-02-21T05:05:52;34.60;;;13.68;;
49758;SDS011;70329;45.524;10.194;2024-02-21T05:08:18;31.95;;;12.85;;
49758;SDS011;70329;45.524;10.194;2024-02-21T05:13:11;29.50;;;11.98;;
49758;SDS011;70329;45.524;10.194;2024-02-21T05:15:38;45.00;;;17.10;;
49758;SDS011;70329;45.524;10.194;2024-02-21T05:18:06;53.10;;;22.52;;
49758;SDS011;70329;45.524;10.194;2024-02-21T05:20:33;32.20;;;12.38;;
49758;SDS011;70329;45.524;10.194;2024-02-21T05:25:26;33.28;;;12.32;;
49758;SDS011;70329;45.524;10.194;2024-02-21T05:30:22;28.70;;;11.52;;
49758;SDS011;70329;45.524;10.194;2024-02-21T05:32:49;28.92;;;11.82;;
49758;SDS011;70329;45.524;10.194;2024-02-21T05:35:18;35.17;;;11.68;;
49758;SDS011;70329;45.524;10.194;2024-02-21T05:37:46;38.53;;;15.32;;
49758;SDS011;70329;45.524;10.194;2024-02-21T05:40:18;36.05;;;13.75;;
49758;SDS011;70329;45.524;10.194;2024-02-21T05:42:47;31.90;;;12.90;;
49758;SDS011;70329;45.524;10.194;2024-02-21T05:45:15;26.63;;;10.50;;
49758;SDS011;70329;45.524;10.194;2024-02-21T05:47:41;32.28;;;12.35;;
49758;SDS011;70329;45.524;10.194;2024-02-21T05:52:36;30.88;;;11.52;;
49758;SDS011;70329;45.524;10.194;2024-02-21T05:55:06;38.60;;;12.48;;
49758;SDS011;70329;45.524;10.194;2024-02-21T05:57:35;32.35;;;11.80;;
49758;SDS011;70329;45.524;10.194;2024-02-21T06:00:03;29.90;;;11.68;;
49758;SDS011;70329;45.524;10.194;2024-02-21T06:02:32;31.80;;;11.15;;
49758;SDS011;70329;45.524;10.194;2024-02-21T06:04:59;29.90;;;11.48;;
49758;SDS011;70329;45.524;10.194;2024-02-21T06:09:54;24.20;;;10.10;;
49758;SDS011;70329;45.524;10.194;2024-02-21T06:12:21;23.90;;;10.00;;
49758;SDS011;70329;45.524;10.194;2024-02-21T06:17:17;24.45;;;10.02;;
49758;SDS011;70329;45.524;10.194;2024-02-21T06:19:43;31.50;;;12.07;;
49758;SDS011;70329;45.524;10.194;2024-02-21T06:22:10;38.63;;;11.68;;
49758;SDS011;70329;45.524;10.194;2024-02-21T06:24:40;32.90;;;11.55;;
49758;SDS011;70329;45.524;10.194;2024-02-21T06:27:11;27.65;;;10.73;;
49758;SDS011;70329;45.524;10.194;2024-02-21T06:29:42;31.98;;;11.65;;
49758;SDS011;70329;45.524;10.194;2024-02-21T06:32:10;32.00;;;11.10;;
49758;SDS011;70329;45.524;10.194;2024-02-21T06:34:37;32.65;;;10.40;;
49758;SDS011;70329;45.524;10.194;2024-02-21T06:39:30;28.13;;;10.73;;
49758;SDS011;70329;45.524;10.194;2024-02-21T06:44:25;30.30;;;10.13;;
49758;SDS011;70329;45.524;10.194;2024-02-21T06:46:52;29.88;;;10.60;;
49758;SDS011;70329;45.524;10.194;2024-02-21T06:49:19;32.88;;;10.50;;
49758;SDS011;70329;45.524;10.194;2024-02-21T06:54:12;30.27;;;10.07;;
49758;SDS011;70329;45.524;10.194;2024-02-21T06:59:06;24.70;;;10.23;;
49758;SDS011;70329;45.524;10.194;2024-02-21T07:01:34;27.13;;;10.45;;
49758;SDS011;70329;45.524;10.194;2024-02-21T07:04:01;26.67;;;9.60;;
49758;SDS011;70329;45.524;10.194;2024-02-21T07:06:27;27.13;;;10.38;;
49758;SDS011;70329;45.524;10.194;2024-02-21T07:08:55;34.58;;;11.60;;
49758;SDS011;70329;45.524;10.194;2024-02-21T07:11:22;27.25;;;10.48;;
49758;SDS011;70329;45.524;10.194;2024-02-21T07:13:49;24.00;;;9.88;;
49758;SDS011;70329;45.524;10.194;2024-02-21T07:18:43;30.70;;;9.07;;
49758;SDS011;70329;45.524;10.194;2024-02-21T07:21:10;28.50;;;9.82;;
49758;SDS011;70329;45.524;10.194;2024-02-21T07:23:40;26.77;;;10.45;;
49758;SDS011;70329;45.524;10.194;2024-02-21T07:26:07;28.98;;;9.82;;
49758;SDS011;70329;45.524;10.194;2024-02-21T07:28:33;26.75;;;9.85;;
49758;SDS011;70329;45.524;10.194;2024-02-21T07:33:26;23.45;;;9.27;;
49758;SDS011;70329;45.524;10.194;2024-02-21T07:38:21;26.35;;;9.77;;
49758;SDS011;70329;45.524;10.194;2024-02-21T07:43:14;27.27;;;9.75;;
49758;SDS011;70329;45.524;10.194;2024-02-21T07:45:41;25.05;;;9.90;;
49758;SDS011;70329;45.524;10.194;2024-02-21T07:50:34;24.80;;;9.18;;
49758;SDS011;70329;45.524;10.194;2024-02-21T07:57:55;26.23;;;9.73;;
49758;SDS011;70329;45.524;10.194;2024-02-21T08:02:48;23.00;;;9.25;;
49758;SDS011;70329;45.524;10.194;2024-02-21T08:05:15;25.20;;;9.55;;
49758;SDS011;70329;45.524;10.194;2024-02-21T08:07:42;22.70;;;8.93;;
49758;SDS011;70329;45.524;10.194;2024-02-21T08:10:10;23.08;;;9.30;;
49758;SDS011;70329;45.524;10.194;2024-02-21T08:12:36;24.08;;;9.32;;
49758;SDS011;70329;45.524;10.194;2024-02-21T08:15:04;24.30;;;8.75;;
49758;SDS011;70329;45.524;10.194;2024-02-21T08:17:33;26.00;;;8.68;;
49758;SDS011;70329;45.524;10.194;2024-02-21T08:22:26;22.95;;;8.73;;
49758;SDS011;70329;45.524;10.194;2024-02-21T08:27:20;23.17;;;8.75;;
49758;SDS011;70329;45.524;10.194;2024-02-21T08:29:47;23.52;;;9.52;;
49758;SDS011;70329;45.524;10.194;2024-02-21T08:34:40;25.00;;;9.23;;
49758;SDS011;70329;45.524;10.194;2024-02-21T08:39:33;24.35;;;9.20;;
49758;SDS011;70329;45.524;10.194;2024-02-21T08:44:28;25.17;;;9.30;;
49758;SDS011;70329;45.524;10.194;2024-02-21T08:46:55;24.40;;;9.23;;
49758;SDS011;70329;45.524;10.194;2024-02-21T08:49:21;24.48;;;9.68;;
49758;SDS011;70329;45.524;10.194;2024-02-21T08:54:14;27.40;;;9.48;;
49758;SDS011;70329;45.524;10.194;2024-02-21T08:56:41;26.67;;;10.00;;
49758;SDS011;70329;45.524;10.194;2024-02-21T09:01:36;31.95;;;12.52;;
49758;SDS011;70329;45.524;10.194;2024-02-21T09:04:03;40.05;;;13.73;;
49758;SDS011;70329;45.524;10.194;2024-02-21T09:06:30;37.83;;;13.95;;
49758;SDS011;70329;45.524;10.194;2024-02-21T09:08:58;33.30;;;13.63;;
49758;SDS011;70329;45.524;10.194;2024-02-21T09:13:52;33.95;;;14.25;;
49758;SDS011;70329;45.524;10.194;2024-02-21T09:18:47;39.65;;;15.10;;
49758;SDS011;70329;45.524;10.194;2024-02-21T09:21:13;40.17;;;15.13;;
49758;SDS011;70329;45.524;10.194;2024-02-21T09:26:06;47.45;;;16.38;;
49758;SDS011;70329;45.524;10.194;2024-02-21T09:28:35;46.90;;;18.10;;
49758;SDS011;70329;45.524;10.194;2024-02-21T09:33:28;36.55;;;14.27;;
49758;SDS011;70329;45.524;10.194;2024-02-21T09:35:56;48.67;;;18.30;;
49758;SDS011;70329;45.524;10.194;2024-02-21T09:38:23;47.78;;;18.05;;
49758;SDS011;70329;45.524;10.194;2024-02-21T09:43:21;38.35;;;15.35;;
49758;SDS011;70329;45.524;10.194;2024-02-21T09:48:29;37.67;;;15.65;;
49758;SDS011;70329;45.524;10.194;2024-02-21T09:51:06;42.97;;;17.15;;
49758;SDS011;70329;45.524;10.194;2024-02-21T09:53:35;45.40;;;17.77;;
49758;SDS011;70329;45.524;10.194;2024-02-21T09:56:05;39.22;;;16.13;;
49758;SDS011;70329;45.524;10.194;2024-02-21T09:58:34;40.13;;;15.93;;
49758;SDS011;70329;45.524;10.194;2024-02-21T10:01:01;45.80;;;15.70;;
49758;SDS011;70329;45.524;10.194;2024-02-21T10:03:29;37.78;;;15.00;;
49758;SDS011;70329;45.524;10.194;2024-02-21T10:05:56;29.75;;;11.63;;
49758;SDS011;70329;45.524;10.194;2024-02-21T10:08:26;35.30;;;13.10;;
49758;SDS011;70329;45.524;10.194;2024-02-21T10:10:53;30.77;;;11.48;;
49758;SDS011;70329;45.524;10.194;2024-02-21T10:13:24;25.40;;;10.48;;
49758;SDS011;70329;45.524;10.194;2024-02-21T10:16:02;25.30;;;8.68;;
49758;SDS011;70329;45.524;10.194;2024-02-21T10:18:29;22.13;;;9.00;;
49758;SDS011;70329;45.524;10.194;2024-02-21T10:21:00;17.17;;;7.60;;
49758;SDS011;70329;45.524;10.194;2024-02-21T10:23:29;18.30;;;7.32;;
49758;SDS011;70329;45.524;10.194;2024-02-21T10:26:04;17.25;;;7.00;;
49758;SDS011;70329;45.524;10.194;2024-02-21T10:28:31;16.92;;;7.65;;
49758;SDS011;70329;45.524;10.194;2024-02-21T10:30:58;22.90;;;7.55;;
49758;SDS011;70329;45.524;10.194;2024-02-21T10:33:24;15.98;;;6.47;;
49758;SDS011;70329;45.524;10.194;2024-02-21T10:35:53;17.13;;;7.82;;
49758;SDS011;70329;45.524;10.194;2024-02-21T10:38:20;17.08;;;7.60;;
49758;SDS011;70329;45.524;10.194;2024-02-21T10:40:47;17.92;;;7.55;;
49758;SDS011;70329;45.524;10.194;2024-02-21T10:43:18;15.70;;;6.43;;
49758;SDS011;70329;45.524;10.194;2024-02-21T10:45:46;18.30;;;7.55;;
49758;SDS011;70329;45.524;10.194;2024-02-21T10:48:16;17.85;;;7.40;;
49758;SDS011;70329;45.524;10.194;2024-02-21T10:50:53;17.30;;;7.45;;
49758;SDS011;70329;45.524;10.194;2024-02-21T10:53:26;24.75;;;9.07;;
49758;SDS011;70329;45.524;10.194;2024-02-21T10:56:06;29.50;;;10.10;;
49758;SDS011;70329;45.524;10.194;2024-02-21T10:58:37;25.45;;;10.82;;
49758;SDS011;70329;45.524;10.194;2024-02-21T11:01:05;27.25;;;12.20;;
49758;SDS011;70329;45.524;10.194;2024-02-21T11:03:33;39.17;;;13.85;;
49758;SDS011;70329;45.524;10.194;2024-02-21T11:06:01;29.17;;;12.57;;
49758;SDS011;70329;45.524;10.194;2024-02-21T11:08:30;37.67;;;14.57;;
49758;SDS011;70329;45.524;10.194;2024-02-21T11:10:56;35.40;;;13.95;;
49758;SDS011;70329;45.524;10.194;2024-02-21T11:13:31;37.90;;;15.27;;
49758;SDS011;70329;45.524;10.194;2024-02-21T11:16:05;36.03;;;15.23;;
49758;SDS011;70329;45.524;10.194;2024-02-21T11:18:34;29.80;;;12.57;;
49758;SDS011;70329;45.524;10.194;2024-02-21T11:21:00;37.30;;;14.93;;
49758;SDS011;70329;45.524;10.194;2024-02-21T11:23:28;34.55;;;14.55;;
49758;SDS011;70329;45.524;10.194;2024-02-21T11:26:03;37.80;;;16.45;;
49758;SDS011;70329;45.524;10.194;2024-02-21T11:28:32;44.42;;;18.17;;
49758;SDS011;70329;45.524;10.194;2024-02-21T11:31:08;50.55;;;21.63;;
49758;SDS011;70329;45.524;10.194;2024-02-21T11:33:39;70.32;;;24.10;;
49758;SDS011;70329;45.524;10.194;2024-02-21T11:36:07;59.13;;;22.10;;
49758;SDS011;70329;45.524;10.194;2024-02-21T11:38:34;50.85;;;20.88;;
49758;SDS011;70329;45.524;10.194;2024-02-21T11:41:01;50.85;;;22.65;;
49758;SDS011;70329;45.524;10.194;2024-02-21T11:43:28;48.90;;;22.38;;
49758;SDS011;70329;45.524;10.194;2024-02-21T11:46:05;61.75;;;25.15;;
49758;SDS011;70329;45.524;10.194;2024-02-21T11:48:32;55.30;;;23.35;;
49758;SDS011;70329;45.524;10.194;2024-02-21T11:50:59;57.05;;;25.60;;
49758;SDS011;70329;45.524;10.194;2024-02-21T11:53:28;57.95;;;26.98;;
49758;SDS011;70329;45.524;10.194;2024-02-21T11:55:56;67.03;;;28.40;;
49758;SDS011;70329;45.524;10.194;2024-02-21T11:58:23;70.30;;;29.38;;
49758;SDS011;70329;45.524;10.194;2024-02-21T12:00:50;65.55;;;28.48;;
49758;SDS011;70329;45.524;10.194;2024-02-21T12:03:18;60.50;;;26.80;;
49758;SDS011;70329;45.524;10.194;2024-02-21T12:05:45;61.38;;;26.05;;
49758;SDS011;70329;45.524;10.194;2024-02-21T12:08:12;59.63;;;26.77;;
49758;SDS011;70329;45.524;10.194;2024-02-21T12:10:38;69.90;;;28.88;;
49758;SDS011;70329;45.524;10.194;2024-02-21T12:13:05;64.97;;;28.02;;
49758;SDS011;70329;45.524;10.194;2024-02-21T12:15:33;65.28;;;27.95;;
49758;SDS011;70329;45.524;10.194;2024-02-21T12:18:00;63.00;;;28.50;;
49758;SDS011;70329;45.524;10.194;2024-02-21T12:20:28;64.15;;;29.90;;
49758;SDS011;70329;45.524;10.194;2024-02-21T12:22:56;63.92;;;29.48;;
49758;SDS011;70329;45.524;10.194;2024-02-21T12:25:23;64.70;;;28.50;;
49758;SDS011;70329;45.524;10.194;2024-02-21T12:27:52;68.47;;;28.05;;
49758;SDS011;70329;45.524;10.194;2024-02-21T12:30:18;63.78;;;28.10;;
49758;SDS011;70329;45.524;10.194;2024-02-21T12:32:45;65.95;;;27.77;;
49758;SDS011;70329;45.524;10.194;2024-02-21T12:35:13;66.32;;;28.67;;
49758;SDS011;70329;45.524;10.194;2024-02-21T12:37:41;67.57;;;28.95;;
49758;SDS011;70329;45.524;10.194;2024-02-21T12:40:08;70.82;;;29.38;;
49758;SDS011;70329;45.524;10.194;2024-02-21T12:42:38;66.93;;;27.80;;
49758;SDS011;70329;45.524;10.194;2024-02-21T12:45:05;61.75;;;25.70;;
49758;SDS011;70329;45.524;10.194;2024-02-21T12:47:32;67.65;;;29.17;;
49758;SDS011;70329;45.524;10.194;2024-02-21T12:49:59;63.97;;;26.63;;
49758;SDS011;70329;45.524;10.194;2024-02-21T12:52:28;61.88;;;26.88;;
49758;SDS011;70329;45.524;10.194;2024-02-21T12:54:56;63.83;;;26.30;;
49758;SDS011;70329;45.524;10.194;2024-02-21T12:57:23;54.10;;;23.85;;
49758;SDS011;70329;45.524;10.194;2024-02-21T12:59:50;49.17;;;22.88;;
49758;SDS011;70329;45.524;10.194;2024-02-21T13:02:17;62.80;;;25.55;;
49758;SDS011;70329;45.524;10.194;2024-02-21T13:04:45;59.03;;;25.98;;
49758;SDS011;70329;45.524;10.194;2024-02-21T13:07:11;62.92;;;26.40;;
49758;SDS011;70329;45.524;10.194;2024-02-21T13:09:38;60.95;;;26.50;;
49758;SDS011;70329;45.524;10.194;2024-02-21T13:12:07;57.45;;;25.95;;
49758;SDS011;70329;45.524;10.194;2024-02-21T13:14:34;57.50;;;26.98;;
49758;SDS011;70329;45.524;10.194;2024-02-21T13:17:03;60.05;;;26.73;;
49758;SDS011;70329;45.524;10.194;2024-02-21T13:19:30;59.47;;;25.25;;
49758;SDS011;70329;45.524;10.194;2024-02-21T13:21:57;58.85;;;25.30;;
49758;SDS011;70329;45.524;10.194;2024-02-21T13:24:24;58.63;;;27.02;;
49758;SDS011;70329;45.524;10.194;2024-02-21T13:26:50;66.63;;;28.33;;
49758;SDS011;70329;45.524;10.194;2024-02-21T13:29:18;65.55;;;27.50;;
49758;SDS011;70329;45.524;10.194;2024-02-21T13:31:46;69.47;;;28.65;;
49758;SDS011;70329;45.524;10.194;2024-02-21T13:34:13;68.40;;;28.88;;
49758;SDS011;70329;45.524;10.194;2024-02-21T13:36:40;63.95;;;28.98;;
49758;SDS011;70329;45.524;10.194;2024-02-21T13:39:06;61.65;;;27.17;;
49758;SDS011;70329;45.524;10.194;2024-02-21T13:41:37;64.22;;;26.80;;
49758;SDS011;70329;45.524;10.194;2024-02-21T13:44:04;65.13;;;29.02;;
49758;SDS011;70329;45.524;10.194;2024-02-21T13:46:32;63.70;;;28.48;;
49758;SDS011;70329;45.524;10.194;2024-02-21T13:49:02;63.83;;;27.83;;
49758;SDS011;70329;45.524;10.194;2024-02-21T13:51:31;69.05;;;28.73;;
49758;SDS011;70329;45.524;10.194;2024-02-21T13:53:58;68.40;;;29.02;;
49758;SDS011;70329;45.524;10.194;2024-02-21T13:56:25;64.95;;;27.60;;
49758;SDS011;70329;45.524;10.194;2024-02-21T13:58:52;64.00;;;28.13;;
49758;SDS011;70329;45.524;10.194;2024-02-21T14:01:18;63.85;;;28.98;;
49758;SDS011;70329;45.524;10.194;2024-02-21T14:03:46;68.72;;;28.83;;
49758;SDS011;70329;45.524;10.194;2024-02-21T14:06:13;64.03;;;27.67;;
49758;SDS011;70329;45.524;10.194;2024-02-21T14:08:39;65.15;;;28.42;;
49758;SDS011;70329;45.524;10.194;2024-02-21T14:11:06;70.03;;;29.25;;
49758;SDS011;70329;45.524;10.194;2024-02-21T14:13:33;68.03;;;29.90;;
49758;SDS011;70329;45.524;10.194;2024-02-21T14:16:00;59.60;;;27.13;;
49758;SDS011;70329;45.524;10.194;2024-02-21T14:18:26;61.15;;;27.48;;
49758;SDS011;70329;45.524;10.194;2024-02-21T14:20:54;66.38;;;29.83;;
49758;SDS011;70329;45.524;10.194;2024-02-21T14:23:21;71.53;;;29.73;;
49758;SDS011;70329;45.524;10.194;2024-02-21T14:25:48;69.28;;;29.88;;
49758;SDS011;70329;45.524;10.194;2024-02-21T14:28:15;65.97;;;28.85;;
49758;SDS011;70329;45.524;10.194;2024-02-21T14:30:43;65.38;;;27.30;;
49758;SDS011;70329;45.524;10.194;2024-02-21T14:33:09;69.88;;;29.33;;
49758;SDS011;70329;45.524;10.194;2024-02-21T14:35:36;67.63;;;29.80;;
49758;SDS011;70329;45.524;10.194;2024-02-21T14:38:04;67.43;;;28.88;;
49758;SDS011;70329;45.524;10.194;2024-02-21T14:40:31;65.78;;;29.42;;
49758;SDS011;70329;45.524;10.194;2024-02-21T14:42:59;72.85;;;29.88;;
49758;SDS011;70329;45.524;10.194;2024-02-21T14:45:26;68.97;;;30.05;;
49758;SDS011;70329;45.524;10.194;2024-02-21T14:47:52;66.78;;;28.75;;
49758;SDS011;70329;45.524;10.194;2024-02-21T14:50:20;77.60;;;32.00;;
49758;SDS011;70329;45.524;10.194;2024-02-21T14:52:48;69.32;;;30.13;;
49758;SDS011;70329;45.524;10.194;2024-02-21T14:55:16;69.88;;;30.48;;
49758;SDS011;70329;45.524;10.194;2024-02-21T14:57:43;72.22;;;29.83;;
49758;SDS011;70329;45.524;10.194;2024-02-21T15:00:10;69.93;;;28.83;;
49758;SDS011;70329;45.524;10.194;2024-02-21T15:02:37;70.55;;;29.55;;
49758;SDS011;70329;45.524;10.194;2024-02-21T15:05:05;81.93;;;32.58;;
49758;SDS011;70329;45.524;10.194;2024-02-21T15:07:32;76.20;;;31.25;;
49758;SDS011;70329;45.524;10.194;2024-02-21T15:09:58;67.32;;;29.73;;
49758;SDS011;70329;45.524;10.194;2024-02-21T15:12:26;76.30;;;30.73;;
49758;SDS011;70329;45.524;10.194;2024-02-21T15:14:53;70.10;;;31.15;;
49758;SDS011;70329;45.524;10.194;2024-02-21T15:17:20;65.10;;;29.73;;
49758;SDS011;70329;45.524;10.194;2024-02-21T15:19:48;66.85;;;28.70;;
49758;SDS011;70329;45.524;10.194;2024-02-21T15:22:16;65.80;;;29.42;;
49758;SDS011;70329;45.524;10.194;2024-02-21T15:24:44;75.50;;;31.52;;
49758;SDS011;70329;45.524;10.194;2024-02-21T15:27:13;69.72;;;29.08;;
49758;SDS011;70329;45.524;10.194;2024-02-21T15:29:41;68.82;;;29.13;;
49758;SDS011;70329;45.524;10.194;2024-02-21T15:32:08;74.32;;;30.40;;
49758;SDS011;70329;45.524;10.194;2024-02-21T15:34:36;76.15;;;33.58;;
49758;SDS011;70329;45.524;10.194;2024-02-21T15:37:03;70.95;;;29.80;;
49758;SDS011;70329;45.524;10.194;2024-02-21T15:39:30;73.38;;;31.00;;
49758;SDS011;70329;45.524;10.194;2024-02-21T15:41:56;72.05;;;30.85;;
49758;SDS011;70329;45.524;10.194;2024-02-21T15:44:23;73.38;;;31.30;;
49758;SDS011;70329;45.524;10.194;2024-02-21T15:46:52;71.30;;;30.95;;
49758;SDS011;70329;45.524;10.194;2024-02-21T15:49:19;73.78;;;31.00;;
49758;SDS011;70329;45.524;10.194;2024-02-21T15:51:46;64.03;;;28.33;;
49758;SDS011;70329;45.524;10.194;2024-02-21T15:54:13;75.38;;;31.77;;
49758;SDS011;70329;45.524;10.194;2024-02-21T15:56:42;64.40;;;28.70;;
49758;SDS011;70329;45.524;10.194;2024-02-21T15:59:08;67.93;;;29.55;;
49758;SDS011;70329;45.524;10.194;2024-02-21T16:01:36;71.53;;;31.05;;
49758;SDS011;70329;45.524;10.194;2024-02-21T16:04:05;65.45;;;28.10;;
49758;SDS011;70329;45.524;10.194;2024-02-21T16:06:32;78.97;;;30.38;;
49758;SDS011;70329;45.524;10.194;2024-02-21T16:08:59;68.70;;;29.30;;
49758;SDS011;70329;45.524;10.194;2024-02-21T16:11:29;66.75;;;30.20;;
49758;SDS011;70329;45.524;10.194;2024-02-21T16:13:56;73.32;;;30.60;;